sensor_id;sensor_type;location;lat;lon;timestamp;P1;durP1;ratioP1;P2;durP2;ratioP2
51148;SDS011;37210;50.058;8.688;2022-11-15T00:00:45;6.00;;;5.45;;
51148;SDS011;37210;50.058;8.688;2022-11-15T00:03:32;6.82;;;6.15;;
51148;SDS011;37210;50.058;8.688;2022-11-15T00:06:18;6.30;;;5.57;;
51148;SDS011;37210;50.058;8.688;2022-11-15T00:09:05;5.97;;;5.47;;
51148;SDS011;37210;50.058;8.688;2022-11-15T00:11:52;5.87;;;5.37;;
51148;SDS011;37210;50.058;8.688;2022-11-15T00:14:39;5.47;;;4.97;;
51148;SDS011;37210;50.058;8.688;2022-11-15T00:17:25;6.05;;;5.45;;
51148;SDS011;37210;50.058;8.688;2022-11-15T00:20:14;5.53;;;4.95;;
51148;SDS011;37210;50.058;8.688;2022-11-15T00:25:54;8.40;;;5.53;;
51148;SDS011;37210;50.058;8.688;2022-11-15T00:28:43;6.18;;;5.45;;
51148;SDS011;37210;50.058;8.688;2022-11-15T00:31:30;5.57;;;4.90;;
51148;SDS011;37210;50.058;8.688;2022-11-15T00:34:16;7.27;;;5.13;;
51148;SDS011;37210;50.058;8.688;2022-11-15T00:37:03;5.70;;;5.18;;
51148;SDS011;37210;50.058;8.688;2022-11-15T00:39:49;6.07;;;5.47;;
51148;SDS011;37210;50.058;8.688;2022-11-15T00:42:35;6.10;;;5.60;;
51148;SDS011;37210;50.058;8.688;2022-11-15T00:45:23;5.70;;;5.20;;
51148;SDS011;37210;50.058;8.688;2022-11-15T00:48:10;6.78;;;5.10;;
51148;SDS011;37210;50.058;8.688;2022-11-15T00:50:57;5.85;;;5.22;;
51148;SDS011;37210;50.058;8.688;2022-11-15T00:53:43;6.43;;;5.72;;
51148;SDS011;37210;50.058;8.688;2022-11-15T00:56:29;5.63;;;5.13;;
51148;SDS011;37210;50.058;8.688;2022-11-15T00:59:16;6.80;;;5.40;;
51148;SDS011;37210;50.058;8.688;2022-11-15T01:02:03;7.53;;;5.15;;
51148;SDS011;37210;50.058;8.688;2022-11-15T01:04:49;5.68;;;5.00;;
51148;SDS011;37210;50.058;8.688;2022-11-15T01:07:36;5.00;;;4.50;;
51148;SDS011;37210;50.058;8.688;2022-11-15T01:10:23;5.93;;;5.40;;
51148;SDS011;37210;50.058;8.688;2022-11-15T01:13:10;5.72;;;4.88;;
51148;SDS011;37210;50.058;8.688;2022-11-15T01:15:56;6.05;;;5.25;;
51148;SDS011;37210;50.058;8.688;2022-11-15T01:18:45;6.93;;;4.95;;
51148;SDS011;37210;50.058;8.688;2022-11-15T01:21:31;5.38;;;4.88;;
51148;SDS011;37210;50.058;8.688;2022-11-15T01:24:18;5.93;;;5.23;;
51148;SDS011;37210;50.058;8.688;2022-11-15T01:27:04;6.05;;;5.22;;
51148;SDS011;37210;50.058;8.688;2022-11-15T01:29:50;5.22;;;4.72;;
51148;SDS011;37210;50.058;8.688;2022-11-15T01:32:36;6.38;;;5.07;;
51148;SDS011;37210;50.058;8.688;2022-11-15T01:35:24;5.90;;;5.17;;
51148;SDS011;37210;50.058;8.688;2022-11-15T01:38:10;5.03;;;4.63;;
51148;SDS011;37210;50.058;8.688;2022-11-15T01:40:56;5.20;;;4.80;;
51148;SDS011;37210;50.058;8.688;2022-11-15T01:43:43;5.87;;;5.03;;
51148;SDS011;37210;50.058;8.688;2022-11-15T01:46:30;5.40;;;4.93;;
51148;SDS011;37210;50.058;8.688;2022-11-15T01:49:20;5.15;;;4.60;;
51148;SDS011;37210;50.058;8.688;2022-11-15T01:52:12;6.25;;;5.22;;
51148;SDS011;37210;50.058;8.688;2022-11-15T01:55:03;5.55;;;5.05;;
51148;SDS011;37210;50.058;8.688;2022-11-15T01:57:55;5.25;;;4.63;;
51148;SDS011;37210;50.058;8.688;2022-11-15T02:00:47;5.18;;;4.68;;
51148;SDS011;37210;50.058;8.688;2022-11-15T02:03:39;5.68;;;4.85;;
51148;SDS011;37210;50.058;8.688;2022-11-15T02:06:34;5.15;;;4.55;;
51148;SDS011;37210;50.058;8.688;2022-11-15T02:09:23;5.22;;;4.72;;
51148;SDS011;37210;50.058;8.688;2022-11-15T02:12:09;5.28;;;4.78;;
51148;SDS011;37210;50.058;8.688;2022-11-15T02:14:59;5.63;;;4.80;;
51148;SDS011;37210;50.058;8.688;2022-11-15T02:17:54;6.65;;;5.30;;
51148;SDS011;37210;50.058;8.688;2022-11-15T02:27:49;5.00;;;4.53;;
51148;SDS011;37210;50.058;8.688;2022-11-15T02:30:59;5.65;;;4.32;;
51148;SDS011;37210;50.058;8.688;2022-11-15T02:33:57;4.93;;;4.47;;
51148;SDS011;37210;50.058;8.688;2022-11-15T02:36:56;5.43;;;4.93;;
51148;SDS011;37210;50.058;8.688;2022-11-15T02:39:54;5.72;;;4.63;;
51148;SDS011;37210;50.058;8.688;2022-11-15T02:42:54;5.97;;;5.05;;
51148;SDS011;37210;50.058;8.688;2022-11-15T02:46:06;4.68;;;4.28;;
51148;SDS011;37210;50.058;8.688;2022-11-15T02:49:02;5.38;;;4.38;;
51148;SDS011;37210;50.058;8.688;2022-11-15T02:51:48;4.87;;;4.47;;
51148;SDS011;37210;50.058;8.688;2022-11-15T02:54:37;5.05;;;4.55;;
51148;SDS011;37210;50.058;8.688;2022-11-15T02:57:26;5.05;;;4.15;;
51148;SDS011;37210;50.058;8.688;2022-11-15T03:00:27;7.78;;;4.57;;
51148;SDS011;37210;50.058;8.688;2022-11-15T03:03:28;5.28;;;4.45;;
51148;SDS011;37210;50.058;8.688;2022-11-15T03:06:33;5.38;;;4.00;;
51148;SDS011;37210;50.058;8.688;2022-11-15T03:09:29;5.38;;;4.50;;
51148;SDS011;37210;50.058;8.688;2022-11-15T03:12:24;5.13;;;4.63;;
51148;SDS011;37210;50.058;8.688;2022-11-15T03:15:21;4.63;;;4.25;;
51148;SDS011;37210;50.058;8.688;2022-11-15T03:18:15;4.97;;;4.50;;
51148;SDS011;37210;50.058;8.688;2022-11-15T03:21:15;5.95;;;4.43;;
51148;SDS011;37210;50.058;8.688;2022-11-15T03:24:05;5.40;;;4.90;;
51148;SDS011;37210;50.058;8.688;2022-11-15T03:26:54;5.53;;;4.82;;
51148;SDS011;37210;50.058;8.688;2022-11-15T03:29:46;5.68;;;4.38;;
51148;SDS011;37210;50.058;8.688;2022-11-15T03:32:39;6.75;;;5.18;;
51148;SDS011;37210;50.058;8.688;2022-11-15T03:35:35;5.40;;;4.30;;
51148;SDS011;37210;50.058;8.688;2022-11-15T03:38:29;4.85;;;4.35;;
51148;SDS011;37210;50.058;8.688;2022-11-15T03:41:20;4.38;;;3.95;;
51148;SDS011;37210;50.058;8.688;2022-11-15T03:44:12;4.95;;;4.47;;
51148;SDS011;37210;50.058;8.688;2022-11-15T03:47:06;4.95;;;4.25;;
51148;SDS011;37210;50.058;8.688;2022-11-15T03:49:59;5.50;;;4.50;;
51148;SDS011;37210;50.058;8.688;2022-11-15T03:52:53;5.25;;;4.72;;
51148;SDS011;37210;50.058;8.688;2022-11-15T03:55:42;6.43;;;4.35;;
51148;SDS011;37210;50.058;8.688;2022-11-15T03:58:29;4.88;;;4.47;;
51148;SDS011;37210;50.058;8.688;2022-11-15T04:01:15;4.57;;;4.10;;
51148;SDS011;37210;50.058;8.688;2022-11-15T04:04:01;4.35;;;3.90;;
51148;SDS011;37210;50.058;8.688;2022-11-15T04:06:48;4.50;;;4.10;;
51148;SDS011;37210;50.058;8.688;2022-11-15T04:09:34;4.15;;;3.80;;
51148;SDS011;37210;50.058;8.688;2022-11-15T04:12:44;5.38;;;4.88;;
51148;SDS011;37210;50.058;8.688;2022-11-15T04:15:31;4.85;;;4.45;;
51148;SDS011;37210;50.058;8.688;2022-11-15T04:21:05;4.90;;;4.47;;
51148;SDS011;37210;50.058;8.688;2022-11-15T04:24:10;5.03;;;4.53;;
51148;SDS011;37210;50.058;8.688;2022-11-15T04:26:59;5.05;;;4.38;;
51148;SDS011;37210;50.058;8.688;2022-11-15T04:29:47;7.10;;;4.80;;
51148;SDS011;37210;50.058;8.688;2022-11-15T04:32:33;4.68;;;4.22;;
51148;SDS011;37210;50.058;8.688;2022-11-15T04:35:19;4.72;;;4.30;;
51148;SDS011;37210;50.058;8.688;2022-11-15T04:38:06;5.03;;;4.63;;
51148;SDS011;37210;50.058;8.688;2022-11-15T04:40:53;5.57;;;4.03;;
51148;SDS011;37210;50.058;8.688;2022-11-15T04:43:39;5.75;;;4.28;;
51148;SDS011;37210;50.058;8.688;2022-11-15T04:46:26;8.30;;;4.78;;
51148;SDS011;37210;50.058;8.688;2022-11-15T04:49:12;5.07;;;4.50;;
51148;SDS011;37210;50.058;8.688;2022-11-15T04:51:58;5.97;;;5.00;;
51148;SDS011;37210;50.058;8.688;2022-11-15T04:54:44;5.15;;;4.65;;
51148;SDS011;37210;50.058;8.688;2022-11-15T04:57:30;6.05;;;4.55;;
51148;SDS011;37210;50.058;8.688;2022-11-15T05:00:16;5.18;;;4.72;;
51148;SDS011;37210;50.058;8.688;2022-11-15T05:03:04;6.27;;;4.63;;
51148;SDS011;37210;50.058;8.688;2022-11-15T05:06:08;4.68;;;4.28;;
51148;SDS011;37210;50.058;8.688;2022-11-15T05:08:54;8.50;;;5.40;;
51148;SDS011;37210;50.058;8.688;2022-11-15T05:14:27;6.07;;;4.50;;
51148;SDS011;37210;50.058;8.688;2022-11-15T05:17:13;5.60;;;5.10;;
51148;SDS011;37210;50.058;8.688;2022-11-15T05:20:00;5.32;;;4.82;;
51148;SDS011;37210;50.058;8.688;2022-11-15T05:22:46;4.70;;;4.30;;
51148;SDS011;37210;50.058;8.688;2022-11-15T05:25:32;8.02;;;7.32;;
51148;SDS011;37210;50.058;8.688;2022-11-15T05:28:18;11.65;;;10.32;;
51148;SDS011;37210;50.058;8.688;2022-11-15T05:31:05;9.27;;;7.32;;
51148;SDS011;37210;50.058;8.688;2022-11-15T05:33:54;6.22;;;4.93;;
51148;SDS011;37210;50.058;8.688;2022-11-15T05:36:45;5.68;;;5.18;;
51148;SDS011;37210;50.058;8.688;2022-11-15T05:39:31;6.13;;;5.28;;
51148;SDS011;37210;50.058;8.688;2022-11-15T05:42:17;6.78;;;5.78;;
51148;SDS011;37210;50.058;8.688;2022-11-15T05:45:06;6.72;;;4.80;;
51148;SDS011;37210;50.058;8.688;2022-11-15T05:47:57;6.68;;;4.90;;
51148;SDS011;37210;50.058;8.688;2022-11-15T05:50:46;5.13;;;4.72;;
51148;SDS011;37210;50.058;8.688;2022-11-15T05:53:35;6.68;;;5.10;;
51148;SDS011;37210;50.058;8.688;2022-11-15T05:56:25;5.75;;;5.05;;
51148;SDS011;37210;50.058;8.688;2022-11-15T05:59:11;5.53;;;5.03;;
51148;SDS011;37210;50.058;8.688;2022-11-15T06:01:58;5.47;;;4.97;;
51148;SDS011;37210;50.058;8.688;2022-11-15T06:04:44;8.10;;;6.03;;
51148;SDS011;37210;50.058;8.688;2022-11-15T06:07:30;5.97;;;5.38;;
51148;SDS011;37210;50.058;8.688;2022-11-15T06:10:18;5.60;;;5.10;;
51148;SDS011;37210;50.058;8.688;2022-11-15T06:15:50;6.05;;;5.45;;
51148;SDS011;37210;50.058;8.688;2022-11-15T06:18:36;6.82;;;6.13;;
51148;SDS011;37210;50.058;8.688;2022-11-15T06:21:23;5.90;;;5.38;;
51148;SDS011;37210;50.058;8.688;2022-11-15T06:24:12;6.88;;;5.65;;
51148;SDS011;37210;50.058;8.688;2022-11-15T06:26:59;5.70;;;5.10;;
51148;SDS011;37210;50.058;8.688;2022-11-15T06:29:45;5.53;;;5.03;;
51148;SDS011;37210;50.058;8.688;2022-11-15T06:32:32;6.35;;;5.75;;
51148;SDS011;37210;50.058;8.688;2022-11-15T06:38:06;6.25;;;5.03;;
51148;SDS011;37210;50.058;8.688;2022-11-15T06:41:00;6.45;;;5.50;;
51148;SDS011;37210;50.058;8.688;2022-11-15T06:43:48;7.03;;;5.90;;
51148;SDS011;37210;50.058;8.688;2022-11-15T06:46:35;6.78;;;6.10;;
51148;SDS011;37210;50.058;8.688;2022-11-15T06:49:20;6.28;;;5.68;;
51148;SDS011;37210;50.058;8.688;2022-11-15T06:52:06;7.35;;;5.78;;
51148;SDS011;37210;50.058;8.688;2022-11-15T06:54:52;8.55;;;5.53;;
51148;SDS011;37210;50.058;8.688;2022-11-15T06:57:45;5.70;;;5.15;;
51148;SDS011;37210;50.058;8.688;2022-11-15T07:00:34;7.93;;;5.60;;
51148;SDS011;37210;50.058;8.688;2022-11-15T07:03:21;6.10;;;5.35;;
51148;SDS011;37210;50.058;8.688;2022-11-15T07:06:08;5.97;;;4.95;;
51148;SDS011;37210;50.058;8.688;2022-11-15T07:08:55;7.20;;;5.30;;
51148;SDS011;37210;50.058;8.688;2022-11-15T07:11:41;5.97;;;4.95;;
51148;SDS011;37210;50.058;8.688;2022-11-15T07:14:27;4.88;;;4.47;;
51148;SDS011;37210;50.058;8.688;2022-11-15T07:17:14;5.78;;;5.15;;
51148;SDS011;37210;50.058;8.688;2022-11-15T07:20:00;8.23;;;5.47;;
51148;SDS011;37210;50.058;8.688;2022-11-15T07:22:46;7.35;;;5.55;;
51148;SDS011;37210;50.058;8.688;2022-11-15T07:25:32;6.10;;;4.88;;
51148;SDS011;37210;50.058;8.688;2022-11-15T07:28:19;6.82;;;5.45;;
51148;SDS011;37210;50.058;8.688;2022-11-15T07:31:05;6.03;;;5.00;;
51148;SDS011;37210;50.058;8.688;2022-11-15T07:33:56;5.95;;;5.20;;
51148;SDS011;37210;50.058;8.688;2022-11-15T07:36:42;5.93;;;5.05;;
51148;SDS011;37210;50.058;8.688;2022-11-15T07:39:28;5.88;;;5.10;;
51148;SDS011;37210;50.058;8.688;2022-11-15T07:42:14;6.20;;;5.40;;
51148;SDS011;37210;50.058;8.688;2022-11-15T07:45:18;6.50;;;5.30;;
51148;SDS011;37210;50.058;8.688;2022-11-15T07:48:04;7.20;;;5.88;;
51148;SDS011;37210;50.058;8.688;2022-11-15T07:50:52;6.03;;;5.32;;
51148;SDS011;37210;50.058;8.688;2022-11-15T07:53:38;6.13;;;5.53;;
51148;SDS011;37210;50.058;8.688;2022-11-15T07:56:24;6.68;;;5.13;;
51148;SDS011;37210;50.058;8.688;2022-11-15T07:59:11;6.50;;;5.30;;
51148;SDS011;37210;50.058;8.688;2022-11-15T08:01:57;6.95;;;5.45;;
51148;SDS011;37210;50.058;8.688;2022-11-15T08:04:43;5.90;;;4.85;;
51148;SDS011;37210;50.058;8.688;2022-11-15T08:07:31;5.67;;;5.00;;
51148;SDS011;37210;50.058;8.688;2022-11-15T08:10:17;5.18;;;4.70;;
51148;SDS011;37210;50.058;8.688;2022-11-15T08:13:04;5.72;;;5.00;;
51148;SDS011;37210;50.058;8.688;2022-11-15T08:15:56;6.07;;;4.70;;
51148;SDS011;37210;50.058;8.688;2022-11-15T08:18:44;7.03;;;4.93;;
51148;SDS011;37210;50.058;8.688;2022-11-15T08:21:30;6.20;;;4.55;;
51148;SDS011;37210;50.058;8.688;2022-11-15T08:24:18;6.72;;;5.18;;
51148;SDS011;37210;50.058;8.688;2022-11-15T08:27:04;5.80;;;5.25;;
51148;SDS011;37210;50.058;8.688;2022-11-15T08:29:59;5.60;;;5.10;;
51148;SDS011;37210;50.058;8.688;2022-11-15T08:32:45;4.75;;;4.35;;
51148;SDS011;37210;50.058;8.688;2022-11-15T08:35:31;4.97;;;4.43;;
51148;SDS011;37210;50.058;8.688;2022-11-15T08:38:17;4.38;;;3.97;;
51148;SDS011;37210;50.058;8.688;2022-11-15T08:41:05;5.20;;;4.63;;
51148;SDS011;37210;50.058;8.688;2022-11-15T08:43:51;10.30;;;4.60;;
51148;SDS011;37210;50.058;8.688;2022-11-15T08:46:37;5.60;;;4.57;;
51148;SDS011;37210;50.058;8.688;2022-11-15T08:49:23;4.47;;;4.17;;
51148;SDS011;37210;50.058;8.688;2022-11-15T08:52:10;6.03;;;5.07;;
51148;SDS011;37210;50.058;8.688;2022-11-15T08:54:55;5.78;;;5.00;;
51148;SDS011;37210;50.058;8.688;2022-11-15T08:57:43;5.07;;;4.53;;
51148;SDS011;37210;50.058;8.688;2022-11-15T09:00:29;6.25;;;5.05;;
51148;SDS011;37210;50.058;8.688;2022-11-15T09:03:16;5.87;;;5.07;;
51148;SDS011;37210;50.058;8.688;2022-11-15T09:06:02;8.45;;;5.57;;
51148;SDS011;37210;50.058;8.688;2022-11-15T09:08:48;7.35;;;5.47;;
51148;SDS011;37210;50.058;8.688;2022-11-15T09:11:34;5.70;;;5.10;;
51148;SDS011;37210;50.058;8.688;2022-11-15T09:14:21;6.57;;;4.70;;
51148;SDS011;37210;50.058;8.688;2022-11-15T09:17:07;7.05;;;6.43;;
51148;SDS011;37210;50.058;8.688;2022-11-15T09:19:54;7.90;;;6.80;;
51148;SDS011;37210;50.058;8.688;2022-11-15T09:22:40;7.57;;;5.40;;
51148;SDS011;37210;50.058;8.688;2022-11-15T09:25:26;7.85;;;7.05;;
51148;SDS011;37210;50.058;8.688;2022-11-15T09:28:12;7.05;;;6.03;;
51148;SDS011;37210;50.058;8.688;2022-11-15T09:31:00;5.27;;;4.87;;
51148;SDS011;37210;50.058;8.688;2022-11-15T09:33:50;6.55;;;5.05;;
51148;SDS011;37210;50.058;8.688;2022-11-15T09:36:39;5.50;;;5.00;;
51148;SDS011;37210;50.058;8.688;2022-11-15T09:39:25;6.37;;;5.00;;
51148;SDS011;37210;50.058;8.688;2022-11-15T09:45:41;6.07;;;5.00;;
51148;SDS011;37210;50.058;8.688;2022-11-15T09:51:33;5.65;;;5.15;;
51148;SDS011;37210;50.058;8.688;2022-11-15T09:54:13;10.05;;;9.02;;
51148;SDS011;37210;50.058;8.688;2022-11-15T09:56:54;6.95;;;5.35;;
51148;SDS011;37210;50.058;8.688;2022-11-15T09:59:36;9.30;;;5.63;;
51148;SDS011;37210;50.058;8.688;2022-11-15T10:02:22;6.53;;;5.07;;
51148;SDS011;37210;50.058;8.688;2022-11-15T10:05:11;9.18;;;5.55;;
51148;SDS011;37210;50.058;8.688;2022-11-15T10:07:44;5.38;;;4.88;;
51148;SDS011;37210;50.058;8.688;2022-11-15T10:10:23;5.82;;;4.68;;
51148;SDS011;37210;50.058;8.688;2022-11-15T10:12:59;6.35;;;5.60;;
51148;SDS011;37210;50.058;8.688;2022-11-15T10:15:26;5.80;;;5.13;;
51148;SDS011;37210;50.058;8.688;2022-11-15T10:17:58;5.53;;;4.93;;
51148;SDS011;37210;50.058;8.688;2022-11-15T10:20:49;20.92;;;17.40;;
51148;SDS011;37210;50.058;8.688;2022-11-15T10:23:23;6.28;;;5.60;;
51148;SDS011;37210;50.058;8.688;2022-11-15T10:25:58;5.25;;;4.68;;
51148;SDS011;37210;50.058;8.688;2022-11-15T10:28:27;15.93;;;14.20;;
51148;SDS011;37210;50.058;8.688;2022-11-15T10:30:58;8.18;;;4.95;;
51148;SDS011;37210;50.058;8.688;2022-11-15T10:33:31;6.82;;;4.88;;
51148;SDS011;37210;50.058;8.688;2022-11-15T10:36:20;13.68;;;11.68;;
51148;SDS011;37210;50.058;8.688;2022-11-15T10:38:52;11.43;;;10.15;;
51148;SDS011;37210;50.058;8.688;2022-11-15T10:44:20;6.05;;;4.30;;
51148;SDS011;37210;50.058;8.688;2022-11-15T10:50:04;7.88;;;6.00;;
51148;SDS011;37210;50.058;8.688;2022-11-15T10:52:54;8.77;;;7.70;;
51148;SDS011;37210;50.058;8.688;2022-11-15T10:55:24;9.63;;;8.55;;
51148;SDS011;37210;50.058;8.688;2022-11-15T10:57:55;9.32;;;8.30;;
51148;SDS011;37210;50.058;8.688;2022-11-15T11:00:32;5.80;;;5.28;;
51148;SDS011;37210;50.058;8.688;2022-11-15T11:03:05;4.97;;;4.47;;
51148;SDS011;37210;50.058;8.688;2022-11-15T11:06:03;5.53;;;4.95;;
51148;SDS011;37210;50.058;8.688;2022-11-15T11:08:37;7.43;;;6.00;;
51148;SDS011;37210;50.058;8.688;2022-11-15T11:11:06;5.30;;;4.80;;
51148;SDS011;37210;50.058;8.688;2022-11-15T11:13:35;5.55;;;4.38;;
51148;SDS011;37210;50.058;8.688;2022-11-15T11:22:16;4.65;;;4.07;;
51148;SDS011;37210;50.058;8.688;2022-11-15T11:24:56;4.97;;;4.10;;
51148;SDS011;37210;50.058;8.688;2022-11-15T11:27:43;5.55;;;4.50;;
51148;SDS011;37210;50.058;8.688;2022-11-15T11:30:25;4.35;;;3.95;;
51148;SDS011;37210;50.058;8.688;2022-11-15T11:33:13;4.75;;;3.90;;
51148;SDS011;37210;50.058;8.688;2022-11-15T11:35:50;4.75;;;4.03;;
51148;SDS011;37210;50.058;8.688;2022-11-15T11:38:39;4.38;;;3.97;;
51148;SDS011;37210;50.058;8.688;2022-11-15T11:41:38;4.03;;;3.63;;
51148;SDS011;37210;50.058;8.688;2022-11-15T11:44:20;4.88;;;4.18;;
51148;SDS011;37210;50.058;8.688;2022-11-15T11:46:59;4.30;;;3.65;;
51148;SDS011;37210;50.058;8.688;2022-11-15T11:49:32;4.05;;;3.55;;
51148;SDS011;37210;50.058;8.688;2022-11-15T11:52:08;5.33;;;4.20;;
51148;SDS011;37210;50.058;8.688;2022-11-15T11:54:46;4.72;;;4.13;;
51148;SDS011;37210;50.058;8.688;2022-11-15T11:57:32;4.28;;;3.85;;
51148;SDS011;37210;50.058;8.688;2022-11-15T12:00:14;4.78;;;3.08;;
51148;SDS011;37210;50.058;8.688;2022-11-15T12:02:48;3.90;;;3.60;;
51148;SDS011;37210;50.058;8.688;2022-11-15T12:05:32;3.78;;;3.40;;
51148;SDS011;37210;50.058;8.688;2022-11-15T12:08:06;5.28;;;3.55;;
51148;SDS011;37210;50.058;8.688;2022-11-15T12:13:28;3.83;;;3.50;;
51148;SDS011;37210;50.058;8.688;2022-11-15T12:16:04;4.00;;;3.60;;
51148;SDS011;37210;50.058;8.688;2022-11-15T12:18:41;3.47;;;3.17;;
51148;SDS011;37210;50.058;8.688;2022-11-15T12:21:16;5.00;;;3.03;;
51148;SDS011;37210;50.058;8.688;2022-11-15T12:23:58;3.65;;;3.35;;
51148;SDS011;37210;50.058;8.688;2022-11-15T12:26:34;3.88;;;3.20;;
51148;SDS011;37210;50.058;8.688;2022-11-15T12:29:11;3.90;;;3.42;;
51148;SDS011;37210;50.058;8.688;2022-11-15T12:31:48;4.97;;;4.55;;
51148;SDS011;37210;50.058;8.688;2022-11-15T12:34:29;4.90;;;4.10;;
51148;SDS011;37210;50.058;8.688;2022-11-15T12:40:24;4.47;;;3.30;;
51148;SDS011;37210;50.058;8.688;2022-11-15T12:43:01;5.18;;;3.75;;
51148;SDS011;37210;50.058;8.688;2022-11-15T12:45:54;3.80;;;3.03;;
51148;SDS011;37210;50.058;8.688;2022-11-15T12:57:51;3.28;;;2.97;;
51148;SDS011;37210;50.058;8.688;2022-11-15T13:03:24;3.17;;;2.88;;
51148;SDS011;37210;50.058;8.688;2022-11-15T13:05:56;2.70;;;2.45;;
51148;SDS011;37210;50.058;8.688;2022-11-15T13:18:29;2.42;;;2.05;;
51148;SDS011;37210;50.058;8.688;2022-11-15T13:21:16;3.85;;;1.92;;
51148;SDS011;37210;50.058;8.688;2022-11-15T13:24:10;3.65;;;1.85;;
51148;SDS011;37210;50.058;8.688;2022-11-15T13:29:16;2.90;;;1.98;;
51148;SDS011;37210;50.058;8.688;2022-11-15T13:31:46;1.98;;;1.67;;
51148;SDS011;37210;50.058;8.688;2022-11-15T13:34:16;3.47;;;1.70;;
51148;SDS011;37210;50.058;8.688;2022-11-15T13:36:55;1.98;;;1.35;;
51148;SDS011;37210;50.058;8.688;2022-11-15T13:39:25;2.85;;;1.85;;
51148;SDS011;37210;50.058;8.688;2022-11-15T13:41:56;2.60;;;1.63;;
51148;SDS011;37210;50.058;8.688;2022-11-15T13:44:25;2.63;;;1.75;;
51148;SDS011;37210;50.058;8.688;2022-11-15T13:47:02;1.85;;;1.65;;
51148;SDS011;37210;50.058;8.688;2022-11-15T13:49:34;2.55;;;1.88;;
51148;SDS011;37210;50.058;8.688;2022-11-15T13:52:04;2.45;;;1.58;;
51148;SDS011;37210;50.058;8.688;2022-11-15T13:54:35;3.42;;;1.63;;
51148;SDS011;37210;50.058;8.688;2022-11-15T13:57:10;3.63;;;1.83;;
51148;SDS011;37210;50.058;8.688;2022-11-15T13:59:47;2.40;;;2.00;;
51148;SDS011;37210;50.058;8.688;2022-11-15T14:02:19;3.20;;;2.30;;
51148;SDS011;37210;50.058;8.688;2022-11-15T14:04:53;2.35;;;2.15;;
51148;SDS011;37210;50.058;8.688;2022-11-15T14:07:25;2.22;;;1.73;;
51148;SDS011;37210;50.058;8.688;2022-11-15T14:09:55;1.92;;;1.60;;
51148;SDS011;37210;50.058;8.688;2022-11-15T14:12:24;2.55;;;1.70;;
51148;SDS011;37210;50.058;8.688;2022-11-15T14:14:59;2.50;;;1.77;;
51148;SDS011;37210;50.058;8.688;2022-11-15T14:17:45;5.00;;;2.22;;
51148;SDS011;37210;50.058;8.688;2022-11-15T14:20:20;4.32;;;1.92;;
51148;SDS011;37210;50.058;8.688;2022-11-15T14:22:58;1.63;;;1.52;;
51148;SDS011;37210;50.058;8.688;2022-11-15T14:25:28;2.05;;;1.85;;
51148;SDS011;37210;50.058;8.688;2022-11-15T14:28:13;2.50;;;2.10;;
51148;SDS011;37210;50.058;8.688;2022-11-15T14:30:58;3.03;;;1.88;;
51148;SDS011;37210;50.058;8.688;2022-11-15T14:33:28;3.25;;;2.50;;
51148;SDS011;37210;50.058;8.688;2022-11-15T14:35:57;2.92;;;2.15;;
51148;SDS011;37210;50.058;8.688;2022-11-15T14:38:31;2.30;;;2.10;;
51148;SDS011;37210;50.058;8.688;2022-11-15T14:41:00;3.58;;;3.08;;
51148;SDS011;37210;50.058;8.688;2022-11-15T14:43:27;3.55;;;2.67;;
51148;SDS011;37210;50.058;8.688;2022-11-15T14:45:58;5.85;;;3.95;;
51148;SDS011;37210;50.058;8.688;2022-11-15T14:48:26;5.57;;;5.00;;
51148;SDS011;37210;50.058;8.688;2022-11-15T14:50:54;3.92;;;3.55;;
51148;SDS011;37210;50.058;8.688;2022-11-15T14:53:22;2.72;;;2.50;;
51148;SDS011;37210;50.058;8.688;2022-11-15T14:55:49;5.15;;;4.65;;
51148;SDS011;37210;50.058;8.688;2022-11-15T14:58:17;4.35;;;4.00;;
51148;SDS011;37210;50.058;8.688;2022-11-15T15:00:44;5.13;;;4.60;;
51148;SDS011;37210;50.058;8.688;2022-11-15T15:03:13;6.22;;;5.05;;
51148;SDS011;37210;50.058;8.688;2022-11-15T15:05:42;6.93;;;5.13;;
51148;SDS011;37210;50.058;8.688;2022-11-15T15:08:10;6.40;;;5.53;;
51148;SDS011;37210;50.058;8.688;2022-11-15T15:10:39;6.50;;;5.90;;
51148;SDS011;37210;50.058;8.688;2022-11-15T15:13:12;4.88;;;4.32;;
51148;SDS011;37210;50.058;8.688;2022-11-15T15:15:44;6.75;;;5.93;;
51148;SDS011;37210;50.058;8.688;2022-11-15T15:18:13;12.68;;;10.05;;
51148;SDS011;37210;50.058;8.688;2022-11-15T15:20:42;13.02;;;11.63;;
51148;SDS011;37210;50.058;8.688;2022-11-15T15:23:15;8.63;;;6.68;;
51148;SDS011;37210;50.058;8.688;2022-11-15T15:25:45;5.93;;;5.32;;
51148;SDS011;37210;50.058;8.688;2022-11-15T15:28:14;6.15;;;4.78;;
51148;SDS011;37210;50.058;8.688;2022-11-15T15:30:42;7.22;;;4.57;;
51148;SDS011;37210;50.058;8.688;2022-11-15T15:33:09;5.00;;;4.30;;
51148;SDS011;37210;50.058;8.688;2022-11-15T15:35:38;4.18;;;3.75;;
51148;SDS011;37210;50.058;8.688;2022-11-15T15:38:08;5.93;;;3.40;;
51148;SDS011;37210;50.058;8.688;2022-11-15T15:40:37;4.95;;;3.33;;
51148;SDS011;37210;50.058;8.688;2022-11-15T15:43:06;4.22;;;3.72;;
51148;SDS011;37210;50.058;8.688;2022-11-15T15:45:35;3.42;;;2.65;;
51148;SDS011;37210;50.058;8.688;2022-11-15T15:48:09;4.70;;;4.30;;
51148;SDS011;37210;50.058;8.688;2022-11-15T15:50:40;4.15;;;3.75;;
51148;SDS011;37210;50.058;8.688;2022-11-15T15:53:10;3.40;;;3.17;;
51148;SDS011;37210;50.058;8.688;2022-11-15T15:55:39;3.92;;;3.53;;
51148;SDS011;37210;50.058;8.688;2022-11-15T15:58:07;4.05;;;3.25;;
51148;SDS011;37210;50.058;8.688;2022-11-15T16:00:35;4.15;;;3.75;;
51148;SDS011;37210;50.058;8.688;2022-11-15T16:03:03;4.00;;;3.60;;
51148;SDS011;37210;50.058;8.688;2022-11-15T16:05:31;3.25;;;2.95;;
51148;SDS011;37210;50.058;8.688;2022-11-15T16:08:00;4.00;;;3.40;;
51148;SDS011;37210;50.058;8.688;2022-11-15T16:10:28;3.97;;;3.60;;
51148;SDS011;37210;50.058;8.688;2022-11-15T16:12:59;5.43;;;3.63;;
51148;SDS011;37210;50.058;8.688;2022-11-15T16:15:27;4.95;;;3.63;;
51148;SDS011;37210;50.058;8.688;2022-11-15T16:17:58;4.47;;;4.07;;
51148;SDS011;37210;50.058;8.688;2022-11-15T16:20:31;4.00;;;3.38;;
51148;SDS011;37210;50.058;8.688;2022-11-15T16:23:07;5.45;;;4.95;;
51148;SDS011;37210;50.058;8.688;2022-11-15T16:25:37;4.72;;;3.83;;
51148;SDS011;37210;50.058;8.688;2022-11-15T16:28:19;6.75;;;4.78;;
51148;SDS011;37210;50.058;8.688;2022-11-15T16:30:49;4.35;;;3.83;;
51148;SDS011;37210;50.058;8.688;2022-11-15T16:33:26;3.92;;;3.28;;
51148;SDS011;37210;50.058;8.688;2022-11-15T16:35:54;3.95;;;3.30;;
51148;SDS011;37210;50.058;8.688;2022-11-15T16:38:23;3.80;;;3.50;;
51148;SDS011;37210;50.058;8.688;2022-11-15T16:40:51;6.22;;;4.97;;
51148;SDS011;37210;50.058;8.688;2022-11-15T16:43:18;4.60;;;4.10;;
51148;SDS011;37210;50.058;8.688;2022-11-15T16:45:46;4.72;;;4.32;;
51148;SDS011;37210;50.058;8.688;2022-11-15T16:48:18;4.90;;;4.50;;
51148;SDS011;37210;50.058;8.688;2022-11-15T16:50:50;9.85;;;8.25;;
51148;SDS011;37210;50.058;8.688;2022-11-15T16:53:21;5.80;;;5.22;;
51148;SDS011;37210;50.058;8.688;2022-11-15T16:55:50;6.25;;;5.13;;
51148;SDS011;37210;50.058;8.688;2022-11-15T16:58:18;4.72;;;4.13;;
51148;SDS011;37210;50.058;8.688;2022-11-15T17:00:49;5.80;;;5.30;;
51148;SDS011;37210;50.058;8.688;2022-11-15T17:03:18;6.18;;;5.43;;
51148;SDS011;37210;50.058;8.688;2022-11-15T17:05:46;9.50;;;7.25;;
51148;SDS011;37210;50.058;8.688;2022-11-15T17:08:14;6.30;;;5.70;;
51148;SDS011;37210;50.058;8.688;2022-11-15T17:10:41;8.30;;;7.50;;
51148;SDS011;37210;50.058;8.688;2022-11-15T17:13:11;7.50;;;5.88;;
51148;SDS011;37210;50.058;8.688;2022-11-15T17:15:40;15.80;;;11.73;;
51148;SDS011;37210;50.058;8.688;2022-11-15T17:18:09;11.93;;;10.73;;
51148;SDS011;37210;50.058;8.688;2022-11-15T17:20:39;11.60;;;10.00;;
51148;SDS011;37210;50.058;8.688;2022-11-15T17:23:09;20.90;;;17.05;;
51148;SDS011;37210;50.058;8.688;2022-11-15T17:25:40;8.55;;;7.22;;
51148;SDS011;37210;50.058;8.688;2022-11-15T17:28:12;6.68;;;5.43;;